Aeroporto :
LOGIN :

Iscrizione | Disclaimer

   EN    FR    IT 

 










Sommario :    VFR   VFR Marginale   IFR   IFR Intensivo   IFR Molto Intensivo
Visibilità : 
Base nubi : 
>= 8 km
>= 3000ft
5 / 8 km
1000 / 3000 ft
1500m / 5 km
500 / 1000 ft
800 / 1500m
200 / 500 ft
< 800m
< 200 ft
Simboli :   Temporali  Nebbia  Neve Forte  Precipitazioni Forti  Vento > 20 kt
SIGMETs :   Varie  Temporali  Ghiacco  Turbolenza  Onda orograficha  Ceneri Vulcaniche






- Altitudine del aeroporto : 3 ft
- Codice IATA : DHR


EHKD - Den Helder De Kooy

ULTIMO METAR :
  • 121325Z AUTO 19014KT 9999 -RADZ FEW023 BKN033 BKN038 05/03 Q0995 BLU 19016G26KT 9999 FEW018 SCT028 TEMPO 4500 SHRA SCT012 SCT018CB BKN020

METARs OBSOLETI :
  • 121257Z AUTO 19019KT 9999 FEW013 SCT098 06/03 Q0995 BLU 19016G26KT 9999 FEW018 SCT028 TEMPO 4500 SHRA SCT012 SCT018CB BKN020
  • 121248Z AUTO 19019KT 9999 SCT013 BKN016 BKN092 06/04 Q0995 GRN 19016G26KT 9999 FEW018 SCT028 TEMPO 4500 SHRA SCT012 SCT018CB BKN020
  • 121244Z AUTO 18018KT 150V210 9999 FEW013 SCT015 BKN055 06/04 Q0995 WHT 19016G26KT 9999 FEW018 SCT028 TEMPO 4500 SHRA SCT012 SCT018CB BKN020
  • 121225Z AUTO 19018KT 150V210 9999 -DZ FEW015CB SCT079 05/03 Q0995 BLU 19016G26KT 9999 FEW018 SCT028 TEMPO 4500 SHRA SCT012 SCT018CB BKN020
  • 121155Z AUTO 19016KT 160V220 9999 FEW015CB BKN069 BKN074 06/04 Q0996 BLU 19016G26KT 9999 FEW018 SCT028 TEMPO 4500 SHRA SCT012 SCT018CB BKN020
  • 121125Z AUTO 19016KT 9999 FEW015CB SCT027 BKN032 06/04 Q0996 REDZ BLU 19016G26KT 9999 FEW018 SCT028 TEMPO 4500 SHRA SCT012 SCT018CB BKN020
  • 121055Z AUTO 19018KT 9999 -RA FEW015CB SCT036 BKN041 06/04 Q0996 RERA REDZ BLU 18016G26KT 9999 FEW018 SCT028 TEMPO 4500 SHRA SCT012 SCT018CB BKN020

TAF TAF EHKD
Valido dal 12 a 14 ore il 13 a 02 ore UTC


121311Z 1214/1302 18016G26KT 9999 FEW018 SCT030
TEMPO 1214/1216 4500 SHRA SCT012 SCT018CB BKN020
PROB30
TEMPO 1215/1216 21020G30KT 2500 TSRAGS SCT006 BKN012 BKN015CB
BECMG 1217/1220 SCT015 BKN020
TEMPO 1218/1302 20018G30KT 4500 RA SHRA SCT008 BKN012 SCT018CB
PROB40
TEMPO 1219/1302 3000 TSRAGS SCT005 BKN010 BKN015CB
BECMG 1300/1302 28014G24KT



MetMap, La meteo Aeronautica in un colpo d'occhio ! - Copyright ORBIFLY Dicembre 2007 - Disclaimer

ORBIFLY MET'MAP TEAM :

Programmazione e sviluppo : Alexandra Zaïnal
Concezione e sviluppo : Baudouin d'Aumeries
Co-Programmazione e sviluppo : Marc-Olivier Méhu
Supporto tecnico e logistico : Manuel Goepfert
Aiuto per la traduzione : Arnaldo La Scala

Contatto : metmap@orbifly.com




FONTI E CREDITI :

   NOAA